Time;durP1;ratioP1;P1;durP2;ratioP2;P2;SDS_P1;SDS_P2;PMS_P1;PMS_P2;Temp;Humidity;BMP_temperature;BMP_pressure;BME280_temperature;BME280_humidity;BME280_pressure;Samples;Min_cycle;Max_cycle;Signal;HPM_P1;HPM_P2
2022/05/13 00:01:42;;;;;;;0.40;0.20;;;;;;;14.65;53.12;100478.39;103597;1274;138314;-69
2022/05/13 00:04:10;;;;;;;0.40;0.20;;;;;;;14.70;52.98;100480.67;103954;1274;95252;-66
2022/05/13 00:06:38;;;;;;;0.40;0.20;;;;;;;14.67;52.95;100475.60;104115;1274;138117;-67
2022/05/13 00:09:06;;;;;;;0.40;0.20;;;;;;;14.64;52.90;100477.88;103668;1274;109665;-66
2022/05/13 00:11:34;;;;;;;0.40;0.20;;;;;;;14.66;52.93;100475.14;103649;1275;138437;-66
2022/05/13 00:14:03;;;;;;;0.40;0.20;;;;;;;14.56;52.75;100477.65;103681;1274;109028;-65
2022/05/13 00:16:34;;;;;;;0.40;0.20;;;;;;;14.52;52.81;100475.66;103668;1274;95239;-66
2022/05/13 00:19:04;;;;;;;0.40;0.20;;;;;;;14.51;53.23;100475.00;103622;1274;138912;-65
2022/05/13 00:21:32;;;;;;;0.40;0.20;;;;;;;14.52;53.11;100471.56;104254;1276;109705;-66
2022/05/13 00:24:00;;;;;;;0.40;0.20;;;;;;;14.54;52.99;100476.10;103569;1275;139990;-65
2022/05/13 00:26:28;;;;;;;0.40;0.20;;;;;;;14.50;53.19;100473.23;103637;1275;109230;-65
2022/05/13 00:28:56;;;;;;;0.40;0.20;;;;;;;14.41;53.36;100470.39;103447;1277;95800;-67
2022/05/13 00:31:24;;;;;;;0.40;0.20;;;;;;;14.29;53.38;100469.27;103547;1275;138181;-66
2022/05/13 00:33:53;;;;;;;0.40;0.20;;;;;;;14.19;53.54;100474.14;103858;1275;109734;-66
2022/05/13 00:36:21;;;;;;;0.40;0.20;;;;;;;14.17;53.80;100473.70;103641;1277;138873;-64
2022/05/13 00:38:50;;;;;;;0.40;0.20;;;;;;;14.17;53.66;100476.35;103689;1274;108773;-65
2022/05/13 00:41:18;;;;;;;0.40;0.20;;;;;;;14.26;53.47;100476.17;103719;1274;95362;-64
2022/05/13 00:43:51;;;;;;;0.40;0.20;;;;;;;14.33;53.69;100470.70;103828;1274;95758;-66
2022/05/13 00:46:21;;;;;;;0.40;0.20;;;;;;;14.37;53.83;100472.52;103668;1274;108657;-66
2022/05/13 00:48:49;;;;;;;0.40;0.20;;;;;;;14.27;54.13;100471.48;103623;1275;138642;-65
2022/05/13 00:51:33;;;;;;;0.40;0.20;;;;;;;14.19;54.33;100478.25;103732;1275;107816;-64
2022/05/13 00:54:01;;;;;;;0.40;0.20;;;;;;;14.05;54.14;100479.67;103377;1277;138999;-66
2022/05/13 00:56:30;;;;;;;0.40;0.20;;;;;;;14.04;54.68;100483.29;103651;1277;95304;-66
2022/05/13 00:59:01;;;;;;;0.40;0.30;;;;;;;13.98;54.83;100481.04;103833;1274;111191;-62
2022/05/13 01:01:29;;;;;;;0.40;0.20;;;;;;;14.05;55.04;100480.95;103798;1274;138554;-67
2022/05/13 01:04:02;;;;;;;0.40;0.20;;;;;;;14.12;54.83;100483.71;103659;1274;108802;-64
2022/05/13 01:06:31;;;;;;;0.40;0.20;;;;;;;14.18;54.63;100486.34;103821;1274;138973;-66
2022/05/13 01:09:00;;;;;;;0.40;0.20;;;;;;;14.14;54.47;100488.08;103643;1277;95211;-65
2022/05/13 01:11:32;;;;;;;0.40;0.20;;;;;;;14.12;54.57;100489.42;103713;1277;138487;-67
2022/05/13 01:14:08;;;;;;;0.40;0.20;;;;;;;14.04;54.60;100487.60;103497;1274;100484;-66
2022/05/13 01:19:23;;;;;;;0.40;0.30;;;;;;;13.94;54.86;100482.27;103455;1277;139449;-64
2022/05/13 01:21:51;;;;;;;0.40;0.20;;;;;;;14.02;54.55;100482.30;103651;1274;95744;-65
2022/05/13 01:24:20;;;;;;;0.40;0.20;;;;;;;14.12;54.42;100481.02;103569;1277;138574;-66
2022/05/13 01:26:48;;;;;;;0.40;0.20;;;;;;;14.22;54.13;100475.46;103550;1276;99543;-66
2022/05/13 01:29:19;;;;;;;0.40;0.20;;;;;;;14.26;54.16;100474.95;103593;1277;108974;-68
2022/05/13 01:31:47;;;;;;;0.40;0.20;;;;;;;14.30;53.90;100478.86;103647;1275;95525;-66
2022/05/13 01:34:15;;;;;;;0.40;0.20;;;;;;;14.35;53.86;100483.85;103542;1277;95611;-67
2022/05/13 01:36:42;;;;;;;0.40;0.30;;;;;;;14.32;54.20;100484.36;103552;1277;139021;-64
2022/05/13 01:39:11;;;;;;;0.40;0.20;;;;;;;14.28;53.88;100488.07;103702;1277;99891;-66
2022/05/13 01:41:39;;;;;;;0.40;0.20;;;;;;;14.21;53.91;100487.45;103614;1274;138587;-66
2022/05/13 01:44:07;;;;;;;0.40;0.20;;;;;;;14.22;53.88;100483.84;103630;1274;95306;-64
2022/05/13 01:46:35;;;;;;;0.40;0.20;;;;;;;14.26;53.63;100486.89;103683;1274;95871;-64
2022/05/13 01:49:03;;;;;;;0.40;0.20;;;;;;;14.31;53.58;100491.17;103664;1275;138514;-65
2022/05/13 01:51:31;;;;;;;0.40;0.20;;;;;;;14.36;53.52;100489.87;103744;1275;99355;-65
2022/05/13 01:54:00;;;;;;;0.40;0.20;;;;;;;14.37;53.48;100489.48;103563;1274;138268;-66
2022/05/13 01:56:28;;;;;;;0.40;0.20;;;;;;;14.38;53.13;100486.94;103791;1274;95254;-65
2022/05/13 01:58:56;;;;;;;0.40;0.30;;;;;;;14.22;53.65;100487.04;103713;1274;95224;-67
2022/05/13 02:01:24;;;;;;;0.40;0.30;;;;;;;14.01;53.93;100485.00;103479;1274;139163;-65
2022/05/13 02:03:52;;;;;;;0.40;0.30;;;;;;;13.99;54.36;100486.35;103834;1275;99337;-65
2022/05/13 02:06:25;;;;;;;0.40;0.20;;;;;;;14.05;54.37;100486.11;103546;1277;138895;-65
2022/05/13 02:08:55;;;;;;;0.40;0.20;;;;;;;14.12;54.15;100480.69;103847;1274;95240;-64
2022/05/13 02:11:25;;;;;;;0.40;0.20;;;;;;;14.04;54.33;100480.08;103818;1275;138790;-65
2022/05/13 02:13:53;;;;;;;0.40;0.20;;;;;;;13.95;54.65;100480.27;103832;1275;109867;-65
2022/05/13 02:16:21;;;;;;;0.40;0.20;;;;;;;13.96;54.89;100482.38;103841;1275;99276;-65
2022/05/13 02:18:50;;;;;;;0.40;0.20;;;;;;;14.01;54.57;100480.05;103596;1277;139620;-66
2022/05/13 02:21:19;;;;;;;0.40;0.20;;;;;;;14.04;54.06;100482.61;103628;1277;95602;-66
2022/05/13 02:23:47;;;;;;;0.40;0.20;;;;;;;14.04;54.06;100486.50;103752;1277;139290;-65
2022/05/13 02:26:17;;;;;;;0.40;0.20;;;;;;;14.05;54.38;100487.38;103859;1277;110192;-65
2022/05/13 02:28:45;;;;;;;0.40;0.20;;;;;;;14.07;54.03;100487.12;103915;1275;100100;-62
2022/05/13 02:31:14;;;;;;;0.40;0.20;;;;;;;14.08;54.56;100482.08;103558;1275;139365;-65
2022/05/13 02:33:43;;;;;;;0.40;0.20;;;;;;;14.03;54.51;100474.98;103669;1275;95644;-65
2022/05/13 02:36:12;;;;;;;0.40;0.30;;;;;;;13.97;54.19;100466.61;103612;1275;139835;-67
2022/05/13 02:38:40;;;;;;;0.40;0.30;;;;;;;13.97;54.12;100471.81;103651;1277;110444;-67
2022/05/13 02:41:11;;;;;;;0.40;0.30;;;;;;;14.00;54.08;100472.23;103734;1277;99385;-67
2022/05/13 02:43:42;;;;;;;0.40;0.20;;;;;;;14.10;53.76;100477.19;103568;1275;138807;-64
2022/05/13 02:46:10;;;;;;;0.40;0.20;;;;;;;14.10;53.85;100473.77;103909;1274;95328;-65
2022/05/13 02:48:38;;;;;;;0.40;0.20;;;;;;;13.98;54.10;100474.96;103617;1277;138546;-65
2022/05/13 02:51:06;;;;;;;0.40;0.20;;;;;;;13.83;54.31;100470.17;103660;1274;109714;-65
2022/05/13 02:53:35;;;;;;;0.40;0.30;;;;;;;13.80;54.55;100474.93;103669;1275;139235;-64
2022/05/13 02:56:03;;;;;;;0.40;0.20;;;;;;;13.77;54.62;100469.55;103726;1275;109306;-66
2022/05/13 02:58:31;;;;;;;0.40;0.20;;;;;;;13.76;54.56;100465.64;103717;1275;95241;-66
2022/05/13 03:00:59;;;;;;;0.40;0.20;;;;;;;13.74;54.88;100461.42;103660;1274;138581;-65
2022/05/13 03:03:34;;;;;;;0.40;0.20;;;;;;;13.61;54.94;100463.70;103685;1274;109700;-65
2022/05/13 03:06:02;;;;;;;0.40;0.30;;;;;;;13.43;55.63;100465.65;103610;1274;138430;-65
2022/05/13 03:08:30;;;;;;;0.40;0.30;;;;;;;13.29;56.43;100463.45;103612;1275;109263;-66
2022/05/13 03:10:58;;;;;;;0.40;0.30;;;;;;;13.25;56.66;100466.27;103684;1274;95757;-63
2022/05/13 03:13:26;;;;;;;0.40;0.20;;;;;;;13.21;56.92;100462.66;103581;1274;138427;-62
2022/05/13 03:15:55;;;;;;;0.40;0.20;;;;;;;13.23;56.92;100461.17;103726;1274;109689;-65
2022/05/13 03:18:22;;;;;;;0.40;0.20;;;;;;;13.29;56.83;100462.04;103530;1277;138452;-63
2022/05/13 03:20:50;;;;;;;0.40;0.30;;;;;;;13.36;56.60;100463.57;103652;1277;108931;-65
2022/05/13 03:23:18;;;;;;;0.40;0.30;;;;;;;13.43;56.51;100465.45;103656;1274;95271;-66
2022/05/13 03:25:46;;;;;;;0.40;0.30;;;;;;;13.49;56.36;100463.42;103646;1276;95219;-64
2022/05/13 03:28:14;;;;;;;0.40;0.30;;;;;;;13.61;56.11;100461.21;103772;1274;110501;-65
2022/05/13 03:30:43;;;;;;;0.40;0.20;;;;;;;13.66;56.17;100459.05;103650;1274;138299;-64
2022/05/13 03:33:12;;;;;;;0.40;0.30;;;;;;;13.66;56.09;100459.25;103786;1275;108872;-65
2022/05/13 03:35:40;;;;;;;0.40;0.20;;;;;;;13.65;55.92;100455.91;103636;1274;139482;-65
2022/05/13 03:38:07;;;;;;;0.40;0.20;;;;;;;13.51;55.65;100455.71;103698;1276;95657;-63
2022/05/13 03:40:36;;;;;;;0.40;0.30;;;;;;;13.43;55.57;100458.34;103910;1275;109691;-64
2022/05/13 03:43:04;;;;;;;0.40;0.20;;;;;;;13.42;56.00;100460.33;103609;1275;138638;-65
2022/05/13 03:45:34;;;;;;;0.40;0.20;;;;;;;13.44;55.86;100459.88;103739;1275;109635;-66
2022/05/13 03:48:03;;;;;;;0.40;0.20;;;;;;;13.44;55.86;100460.58;103674;1277;139288;-66
2022/05/13 03:50:33;;;;;;;0.40;0.20;;;;;;;13.41;55.64;100462.14;103766;1275;95542;-65
2022/05/13 03:53:02;;;;;;;0.40;0.20;;;;;;;13.38;55.47;100456.16;103750;1277;109776;-64
2022/05/13 03:55:31;;;;;;;0.40;0.30;;;;;;;13.37;55.45;100462.80;103641;1277;138324;-66
2022/05/13 03:57:59;;;;;;;0.40;0.30;;;;;;;13.38;55.69;100467.26;103938;1274;159879;-65
2022/05/13 04:00:27;;;;;;;0.40;0.30;;;;;;;13.48;55.61;100462.96;103540;1277;139381;-64
2022/05/13 04:02:55;;;;;;;0.40;0.20;;;;;;;13.59;55.33;100465.23;103681;1275;95292;-65
2022/05/13 04:11:05;;;;;;;0.40;0.20;;;;;;;13.67;54.77;100464.71;103554;1277;108845;-66
2022/05/13 04:16:20;;;;;;;0.40;0.20;;;;;;;13.69;54.76;100453.08;103590;1277;96220;-66
2022/05/13 04:18:50;;;;;;;0.40;0.30;;;;;;;13.69;54.43;100451.48;103609;1275;138874;-65
2022/05/13 04:21:22;;;;;;;0.40;0.30;;;;;;;13.69;54.52;100452.02;103676;1275;99359;-65
2022/05/13 04:23:52;;;;;;;0.40;0.20;;;;;;;13.75;54.54;100456.23;103591;1274;139659;-65
2022/05/13 04:26:21;;;;;;;0.40;0.20;;;;;;;13.85;54.41;100458.16;103722;1277;95624;-65
2022/05/13 04:28:50;;;;;;;0.40;0.30;;;;;;;13.94;54.19;100459.06;103764;1276;95224;-65
2022/05/13 04:31:23;;;;;;;0.40;0.20;;;;;;;14.10;53.91;100463.61;103650;1277;138631;-66
2022/05/13 04:33:52;;;;;;;0.40;0.20;;;;;;;14.21;53.84;100459.26;103717;1277;99114;-64
2022/05/13 04:36:21;;;;;;;0.40;0.20;;;;;;;14.34;53.34;100457.27;103791;1274;138408;-67
2022/05/13 04:38:50;;;;;;;0.40;0.20;;;;;;;14.45;53.15;100457.39;103939;1275;97094;-64
2022/05/13 04:44:08;;;;;;;0.40;0.20;;;;;;;14.62;52.02;100453.63;103638;1275;110317;-64
2022/05/13 04:46:37;;;;;;;0.40;0.20;;;;;;;14.64;52.04;100458.55;103878;1275;99389;-62
2022/05/13 04:49:06;;;;;;;0.40;0.30;;;;;;;14.75;51.59;100452.59;103721;1275;138139;-66
2022/05/13 04:51:35;;;;;;;0.40;0.20;;;;;;;14.81;50.87;100452.13;103814;1274;95150;-62
2022/05/13 04:54:04;;;;;;;0.40;0.20;;;;;;;14.88;50.80;100447.56;103670;1275;138257;-65
2022/05/13 04:56:32;;;;;;;0.40;0.20;;;;;;;14.92;50.35;100447.55;103735;1274;109900;-67
2022/05/13 04:58:59;;;;;;;0.40;0.20;;;;;;;14.97;50.11;100441.44;103634;1276;99362;-65
2022/05/13 05:01:27;;;;;;;0.40;0.20;;;;;;;15.05;49.76;100442.15;103584;1275;138666;-64
2022/05/13 05:03:55;;;;;;;0.40;0.20;;;;;;;15.14;49.80;100443.23;103998;1275;95140;-64
2022/05/13 05:06:24;;;;;;;0.40;0.20;;;;;;;15.24;49.64;100442.20;103752;1275;138177;-65
2022/05/13 05:08:53;;;;;;;0.40;0.20;;;;;;;15.36;50.01;100448.80;103640;1274;109638;-64
2022/05/13 05:11:26;;;;;;;0.40;0.20;;;;;;;15.53;50.27;100446.63;103806;1275;138535;-63
2022/05/13 05:13:54;;;;;;;0.40;0.20;;;;;;;15.63;50.27;100440.24;103626;1275;108850;-65
2022/05/13 05:16:22;;;;;;;0.40;0.20;;;;;;;15.70;49.98;100442.80;103652;1274;95644;-66
2022/05/13 05:18:50;;;;;;;0.40;0.20;;;;;;;15.82;49.22;100441.72;103529;1274;138056;-66
2022/05/13 05:21:18;;;;;;;0.40;0.20;;;;;;;15.90;48.27;100439.77;104008;1274;109697;-64
2022/05/13 05:23:48;;;;;;;0.40;0.20;;;;;;;15.97;48.12;100439.05;103551;1274;138458;-65
2022/05/13 05:26:17;;;;;;;0.40;0.20;;;;;;;16.04;48.12;100432.81;103799;1274;108819;-65
2022/05/13 05:28:46;;;;;;;0.40;0.20;;;;;;;16.16;48.05;100436.34;103635;1275;95767;-66
2022/05/13 05:31:14;;;;;;;0.40;0.20;;;;;;;16.28;47.34;100432.86;103433;1274;138087;-65
2022/05/13 05:33:43;;;;;;;0.40;0.20;;;;;;;16.39;46.30;100434.65;103770;1277;110029;-67
2022/05/13 05:36:11;;;;;;;0.40;0.20;;;;;;;16.51;46.06;100438.19;103648;1275;138403;-68
2022/05/13 05:38:39;;;;;;;0.40;0.20;;;;;;;16.59;45.27;100434.92;103709;1274;108763;-68
2022/05/13 05:41:06;;;;;;;0.40;0.20;;;;;;;16.68;45.11;100431.62;103728;1274;95311;-66
2022/05/13 05:43:35;;;;;;;0.40;0.20;;;;;;;16.83;45.16;100432.66;103610;1275;138111;-67
2022/05/13 05:46:04;;;;;;;0.40;0.20;;;;;;;17.03;44.97;100433.61;103821;1278;109349;-62
2022/05/13 05:48:32;;;;;;;0.40;0.10;;;;;;;17.14;44.45;100437.31;103855;1274;139314;-66
2022/05/13 05:51:01;;;;;;;0.40;0.10;;;;;;;17.23;44.14;100438.64;103877;1274;108469;-67
2022/05/13 05:59:05;;;;;;;0.40;0.20;;;;;;;17.52;43.08;100442.63;103701;1274;109748;-67
2022/05/13 06:01:33;;;;;;;0.40;0.20;;;;;;;17.65;43.23;100444.23;103723;1275;138334;-68
2022/05/13 06:04:02;;;;;;;0.40;0.20;;;;;;;17.79;43.19;100445.33;103819;1274;108934;-68
2022/05/13 06:06:30;;;;;;;0.40;0.20;;;;;;;17.85;42.51;100444.41;103638;1275;138315;-69
2022/05/13 06:08:59;;;;;;;0.40;0.10;;;;;;;17.89;42.43;100446.88;103936;1274;95268;-67
2022/05/13 06:11:27;;;;;;;0.40;0.10;;;;;;;18.02;42.26;100444.95;103666;1274;138698;-68
2022/05/13 06:13:57;;;;;;;0.40;0.10;;;;;;;18.14;42.38;100443.18;103906;1274;99369;-66
2022/05/13 06:16:27;;;;;;;0.40;0.10;;;;;;;18.23;41.35;100441.58;103605;1274;108782;-66
2022/05/13 06:19:00;;;;;;;0.40;0.10;;;;;;;18.35;41.00;100441.80;103474;1275;138658;-66
2022/05/13 06:21:31;;;;;;;0.40;0.10;;;;;;;18.48;40.24;100441.79;104003;1274;95927;-67
2022/05/13 06:23:59;;;;;;;0.40;0.10;;;;;;;18.74;39.87;100440.41;103716;1274;138315;-68
2022/05/13 06:26:28;;;;;;;0.40;0.10;;;;;;;18.93;39.02;100438.96;103805;1274;99421;-68
2022/05/13 06:28:57;;;;;;;0.40;0.10;;;;;;;19.03;38.61;100436.71;103805;1274;108740;-66
2022/05/13 06:31:25;;;;;;;0.40;0.10;;;;;;;19.29;38.82;100439.12;103712;1274;139941;-66
2022/05/13 06:33:53;;;;;;;0.40;0.10;;;;;;;19.65;37.99;100441.15;103951;1274;95648;-67
2022/05/13 06:36:22;;;;;;;0.40;0.10;;;;;;;20.13;37.30;100440.23;103675;1274;138035;-69
2022/05/13 06:38:49;;;;;;;0.40;0.10;;;;;;;20.79;35.80;100435.86;103875;1274;99496;-67
2022/05/13 06:41:18;;;;;;;0.40;0.10;;;;;;;21.42;35.10;100438.73;103624;1274;108931;-66
2022/05/13 06:43:46;;;;;;;0.40;0.10;;;;;;;21.95;33.52;100435.85;104033;1274;138167;-67
2022/05/13 06:46:14;;;;;;;0.40;0.10;;;;;;;22.01;33.38;100432.20;103315;1274;95558;-66
2022/05/13 06:48:47;;;;;;;0.40;0.10;;;;;;;21.87;33.79;100428.13;103404;1274;138221;-67
2022/05/13 06:51:16;;;;;;;0.40;0.10;;;;;;;21.69;33.99;100425.67;103398;1274;99159;-67
2022/05/13 06:53:45;;;;;;;0.40;0.10;;;;;;;21.43;34.35;100420.83;103359;1275;138315;-67
2022/05/13 06:56:13;;;;;;;0.40;0.10;;;;;;;21.21;34.94;100423.79;103691;1277;95488;-68
2022/05/13 06:58:42;;;;;;;0.40;0.10;;;;;;;21.06;35.21;100421.56;103567;1274;95170;-66
2022/05/13 07:01:10;;;;;;;0.40;0.10;;;;;;;20.98;35.35;100420.38;103594;1274;138105;-66
2022/05/13 07:03:38;;;;;;;0.40;0.10;;;;;;;20.88;35.42;100421.36;103521;1274;99344;-66
2022/05/13 07:06:06;;;;;;;0.40;0.10;;;;;;;20.84;34.90;100422.23;103381;1274;138381;-68
2022/05/13 07:08:34;;;;;;;0.40;0.10;;;;;;;20.72;34.61;100414.38;103827;1274;95169;-67
2022/05/13 07:11:02;;;;;;;0.40;0.10;;;;;;;20.65;35.11;100418.06;103518;1274;96278;-67
2022/05/13 07:13:30;;;;;;;0.40;0.10;;;;;;;20.58;34.06;100419.45;103388;1274;140959;-67
2022/05/13 07:15:59;;;;;;;0.40;0.10;;;;;;;20.48;34.97;100419.91;103558;1274;99513;-68
2022/05/13 07:18:27;;;;;;;0.40;0.10;;;;;;;20.44;34.14;100418.04;103379;1274;138215;-69
2022/05/13 07:20:55;;;;;;;0.40;0.10;;;;;;;20.34;34.03;100412.95;104760;1274;95317;-68
2022/05/13 07:23:23;;;;;;;0.40;0.10;;;;;;;20.32;34.38;100409.30;103466;1274;138306;-68
2022/05/13 07:25:51;;;;;;;0.40;0.10;;;;;;;20.30;34.22;100409.27;103590;1274;109835;-67
2022/05/13 07:28:19;;;;;;;0.40;0.10;;;;;;;20.29;34.47;100404.27;103570;1274;99427;-68
2022/05/13 07:30:48;;;;;;;0.40;0.10;;;;;;;20.30;34.20;100405.23;103441;1274;138107;-69
2022/05/13 07:33:17;;;;;;;0.40;0.10;;;;;;;20.29;34.12;100400.29;104349;1274;96675;-68
2022/05/13 07:35:45;;;;;;;0.40;0.10;;;;;;;20.32;34.26;100397.17;103706;1275;138558;-68
2022/05/13 07:38:14;;;;;;;0.40;0.10;;;;;;;20.36;33.52;100400.19;103444;1277;109675;-67
2022/05/13 07:43:28;;;;;;;0.40;0.10;;;;;;;20.34;33.22;100399.42;103505;1273;138188;-68
2022/05/13 07:45:56;;;;;;;0.40;0.10;;;;;;;20.42;33.74;100395.98;103590;1274;95286;-68
2022/05/13 07:48:24;;;;;;;0.40;0.10;;;;;;;20.54;33.81;100391.73;103496;1274;138415;-67
2022/05/13 07:50:52;;;;;;;0.40;0.10;;;;;;;20.63;33.98;100391.15;103451;1275;110771;-68
2022/05/13 07:53:20;;;;;;;0.40;0.10;;;;;;;20.75;33.19;100390.73;103480;1274;98355;-67
2022/05/13 07:55:49;;;;;;;0.40;0.10;;;;;;;20.81;32.70;100390.45;103260;1275;109714;-68
2022/05/13 07:58:17;;;;;;;0.40;0.10;;;;;;;20.86;31.96;100389.77;103402;1274;95619;-69
2022/05/13 08:00:45;;;;;;;0.40;0.10;;;;;;;20.87;31.53;100388.05;104072;1274;138106;-68
2022/05/13 08:03:15;;;;;;;0.40;0.10;;;;;;;20.93;31.61;100394.02;103878;1274;109613;-68
2022/05/13 08:05:53;;;;;;;0.40;0.10;;;;;;;21.05;31.97;100396.92;103687;1275;138967;-67
2022/05/13 08:08:26;;;;;;;0.40;0.10;;;;;;;21.10;31.35;100398.40;103767;1274;109522;-68
2022/05/13 08:10:57;;;;;;;0.40;0.10;;;;;;;21.16;31.35;100397.45;103409;1274;95857;-68
2022/05/13 08:13:26;;;;;;;0.40;0.10;;;;;;;21.29;32.20;100396.35;103376;1274;138077;-68
2022/05/13 08:15:54;;;;;;;0.40;0.00;;;;;;;21.56;31.72;100399.48;103401;1274;110057;-70
2022/05/13 08:18:22;;;;;;;0.40;0.10;;;;;;;21.62;31.49;100396.37;103304;1274;138635;-69
2022/05/13 08:20:51;;;;;;;0.40;0.10;;;;;;;21.69;32.08;100393.85;103748;1274;108068;-68
2022/05/13 08:23:19;;;;;;;0.40;0.10;;;;;;;21.80;32.15;100390.83;103413;1277;96074;-70
2022/05/13 08:25:48;;;;;;;0.40;0.10;;;;;;;21.92;31.17;100384.21;103909;1274;96130;-68
2022/05/13 08:28:18;;;;;;;0.40;0.10;;;;;;;22.00;31.25;100384.52;103579;1274;109646;-68
2022/05/13 08:30:47;;;;;;;0.40;0.10;;;;;;;21.92;30.71;100384.06;103990;1274;138590;-69
2022/05/13 08:33:19;;;;;;;0.40;0.10;;;;;;;21.98;30.48;100375.63;104734;1274;109046;-70
2022/05/13 08:35:51;;;;;;;0.40;0.10;;;;;;;21.94;29.56;100375.95;103863;1275;139123;-68
2022/05/13 08:38:22;;;;;;;0.40;0.10;;;;;;;21.82;30.06;100376.80;103857;1274;95459;-70
2022/05/13 08:40:50;;;;;;;0.40;0.10;;;;;;;21.83;30.28;100375.11;103370;1276;110415;-68
2022/05/13 08:43:26;;;;;;;0.40;0.10;;;;;;;22.10;30.50;100375.11;103787;1274;138772;-68
2022/05/13 08:46:00;;;;;;;0.40;0.10;;;;;;;22.28;29.93;100371.83;103419;1277;108969;-68
2022/05/13 08:48:32;;;;;;;0.40;0.00;;;;;;;22.51;30.22;100372.21;103320;1274;138963;-68
2022/05/13 08:51:18;;;;;;;0.40;0.10;;;;;;;22.72;29.20;100369.15;103553;1274;95926;-67
2022/05/13 08:53:58;;;;;;;0.40;0.10;;;;;;;22.91;29.12;100358.77;103433;1274;138533;-69
2022/05/13 08:56:28;;;;;;;0.40;0.10;;;;;;;23.16;29.11;100356.09;103524;1274;98994;-70
2022/05/13 08:59:08;;;;;;;0.40;0.10;;;;;;;23.40;28.15;100356.92;103514;1274;110040;-68
2022/05/13 09:01:39;;;;;;;0.40;0.00;;;;;;;23.51;28.59;100354.63;103495;1274;139048;-69
2022/05/13 09:04:14;;;;;;;0.40;0.10;;;;;;;23.79;28.31;100352.48;103487;1274;94968;-68
2022/05/13 09:06:57;;;;;;;0.40;0.00;;;;;;;23.91;27.19;100361.70;104761;1274;139172;-68
2022/05/13 09:09:25;;;;;;;0.40;0.00;;;;;;;23.83;27.43;100355.45;103548;1274;99608;-68
2022/05/13 09:12:34;;;;;;;0.40;0.00;;;;;;;23.98;27.31;100353.52;103349;1274;138848;-69
2022/05/13 09:15:13;;;;;;;0.40;0.00;;;;;;;24.21;27.32;100358.46;103134;1281;95425;-70
2022/05/13 09:18:00;;;;;;;0.40;0.00;;;;;;;24.52;27.05;100349.84;103237;1281;138691;-70
2022/05/13 09:20:43;;;;;;;0.40;0.10;;;;;;;25.16;25.79;100339.60;103380;1274;109374;-68
2022/05/13 09:23:12;;;;;;;0.40;0.10;;;;;;;26.38;24.65;100334.58;103637;1275;99647;-67
2022/05/13 09:26:01;;;;;;;0.40;0.10;;;;;;;27.40;23.05;100332.51;103488;1274;138807;-68
2022/05/13 09:28:32;;;;;;;0.40;0.00;;;;;;;28.29;22.22;100330.19;103621;1274;95229;-68
2022/05/13 09:31:15;;;;;;;0.40;0.10;;;;;;;28.53;21.37;100325.62;103659;1275;138212;-68
2022/05/13 09:33:57;;;;;;;0.40;0.10;;;;;;;28.75;20.83;100320.20;103481;1275;110202;-69
2022/05/13 09:36:26;;;;;;;0.40;0.00;;;;;;;29.79;20.35;100317.02;103276;1274;138381;-69
2022/05/13 09:39:17;;;;;;;0.40;0.00;;;;;;;30.88;19.80;100308.82;103464;1274;108747;-68
2022/05/13 09:41:46;;;;;;;0.40;0.00;;;;;;;31.46;18.16;100312.73;103337;1274;138626;-68
2022/05/13 09:44:25;;;;;;;0.40;0.00;;;;;;;31.50;18.20;100305.81;103669;1274;96560;-66
2022/05/13 09:47:17;;;;;;;0.40;0.00;;;;;;;31.59;17.88;100307.70;103514;1274;108172;-65
2022/05/13 09:50:27;;;;;;;0.40;0.00;;;;;;;30.86;18.56;100298.88;103462;1274;99407;-65
2022/05/13 09:53:02;;;;;;;0.40;0.00;;;;;;;31.22;18.06;100294.51;103911;1274;108901;-64
2022/05/13 09:55:36;;;;;;;0.40;0.00;;;;;;;31.87;17.73;100287.38;103523;1274;139915;-66
2022/05/13 09:58:09;;;;;;;0.40;0.00;;;;;;;32.79;17.31;100275.61;103585;1274;95611;-65
2022/05/13 10:00:39;;;;;;;0.40;0.00;;;;;;;33.52;16.60;100273.04;103236;1274;138046;-66
2022/05/13 10:03:23;;;;;;;0.40;0.00;;;;;;;34.40;15.82;100272.71;103529;1274;98922;-64
2022/05/13 10:06:11;;;;;;;0.40;0.00;;;;;;;34.77;14.75;100276.41;103576;1274;138483;-65
2022/05/13 10:08:51;;;;;;;0.40;0.00;;;;;;;34.95;14.85;100274.33;103292;1274;96550;-65
2022/05/13 10:14:26;;;;;;;0.40;0.00;;;;;;;35.71;14.12;100264.58;103407;1274;109697;-66
2022/05/13 10:16:57;;;;;;;0.40;0.00;;;;;;;36.04;13.98;100256.22;103123;1274;99466;-65
2022/05/13 10:19:41;;;;;;;0.40;0.00;;;;;;;36.43;13.52;100258.05;103416;1274;140648;-66
2022/05/13 10:22:21;;;;;;;0.40;0.00;;;;;;;35.59;13.90;100258.55;103540;1274;96091;-65
2022/05/13 10:24:55;;;;;;;0.40;0.00;;;;;;;33.98;15.33;100260.47;103377;1274;138151;-65
2022/05/13 10:27:28;;;;;;;0.40;0.00;;;;;;;34.24;14.76;100260.06;103334;1274;109678;-65
2022/05/13 10:30:03;;;;;;;0.40;0.00;;;;;;;33.49;14.98;100257.98;103322;1277;138543;-65
2022/05/13 10:32:45;;;;;;;0.40;0.00;;;;;;;33.26;15.71;100255.31;103570;1274;108149;-66
2022/05/13 10:35:17;;;;;;;0.40;0.00;;;;;;;33.84;15.29;100254.99;104112;1275;95336;-66
2022/05/13 10:38:11;;;;;;;0.40;0.00;;;;;;;34.32;14.77;100243.38;103830;1274;138505;-66
2022/05/13 10:40:42;;;;;;;0.40;0.00;;;;;;;35.06;14.59;100246.08;104335;1274;109703;-66
2022/05/13 10:43:42;;;;;;;0.40;0.00;;;;;;;34.85;14.59;100242.39;103625;1274;139073;-66
2022/05/13 10:46:25;;;;;;;0.40;0.00;;;;;;;34.33;14.63;100246.25;103164;1275;108870;-66
2022/05/13 10:49:13;;;;;;;0.40;0.00;;;;;;;34.93;14.82;100237.25;103269;1276;138425;-66
2022/05/13 10:51:56;;;;;;;0.40;0.00;;;;;;;35.60;14.14;100233.01;103396;1274;95553;-66
2022/05/13 10:54:34;;;;;;;0.40;0.00;;;;;;;35.53;13.57;100239.42;103217;1274;138568;-66
2022/05/13 10:57:10;;;;;;;0.40;0.00;;;;;;;34.57;14.23;100228.20;103116;1274;99454;-65
2022/05/13 10:59:53;;;;;;;0.40;0.00;;;;;;;33.12;15.31;100234.80;103351;1274;138642;-66
2022/05/13 11:02:24;;;;;;;0.40;0.00;;;;;;;32.16;16.18;100229.13;103544;1274;95252;-67
2022/05/13 11:05:14;;;;;;;0.40;0.00;;;;;;;31.46;16.69;100231.59;103419;1277;95633;-66
2022/05/13 11:07:54;;;;;;;0.40;0.00;;;;;;;30.78;17.79;100228.57;103211;1274;137875;-65
2022/05/13 11:10:54;;;;;;;0.40;0.00;;;;;;;30.27;17.81;100220.41;103491;1274;100064;-66
2022/05/13 11:14:04;;;;;;;0.40;0.00;;;;;;;29.76;18.15;100224.73;103147;1274;138841;-66
2022/05/13 11:16:37;;;;;;;0.40;0.00;;;;;;;29.31;19.09;100215.64;103454;1274;95177;-66
2022/05/13 11:19:14;;;;;;;0.40;0.00;;;;;;;28.96;19.48;100222.23;103447;1274;138192;-66
2022/05/13 11:21:42;;;;;;;0.40;0.00;;;;;;;28.31;19.82;100213.32;103436;1274;109835;-65
2022/05/13 11:27:30;;;;;;;0.40;0.00;;;;;;;27.62;21.35;100216.61;103475;1274;108961;-65
2022/05/13 11:30:19;;;;;;;0.40;0.00;;;;;;;27.56;21.79;100209.50;103289;1274;138339;-66
2022/05/13 11:32:57;;;;;;;0.40;0.00;;;;;;;27.48;21.70;100207.75;104187;1274;96425;-65
2022/05/13 11:35:40;;;;;;;0.40;0.00;;;;;;;27.25;21.78;100210.75;103624;1274;138093;-65
2022/05/13 11:38:16;;;;;;;0.40;0.00;;;;;;;27.06;21.81;100210.77;103561;1275;99583;-64
2022/05/13 11:41:08;;;;;;;0.40;0.00;;;;;;;26.90;22.30;100212.18;103808;1274;109112;-65
2022/05/13 11:44:04;;;;;;;0.40;0.00;;;;;;;26.65;22.26;100211.65;103478;1274;95383;-66
2022/05/13 11:46:35;;;;;;;0.40;0.00;;;;;;;26.41;22.63;100203.93;103551;1274;96139;-66
2022/05/13 11:49:10;;;;;;;0.40;0.00;;;;;;;26.36;23.26;100200.96;103383;1274;138178;-65
2022/05/13 11:51:38;;;;;;;0.40;0.00;;;;;;;26.35;23.14;100199.27;103608;1274;99797;-66
2022/05/13 11:54:25;;;;;;;0.40;0.00;;;;;;;26.19;22.99;100199.70;103366;1274;138782;-66
2022/05/13 11:57:25;;;;;;;0.40;0.00;;;;;;;26.04;23.20;100193.98;103526;1274;96419;-66
2022/05/13 11:59:56;;;;;;;0.40;0.00;;;;;;;26.01;23.40;100184.25;103403;1274;138364;-66
2022/05/13 12:02:32;;;;;;;0.40;0.00;;;;;;;25.90;23.20;100186.39;103302;1274;109912;-65